sensor_id;sensor_type;location;lat;lon;timestamp;temperature;humidity
81192;DHT22;70665;47.652;-2.730;2023-11-21T00:00:05;12.00;90.80
81192;DHT22;70665;47.652;-2.730;2023-11-21T00:02:35;11.90;90.90
81192;DHT22;70665;47.652;-2.730;2023-11-21T00:05:03;11.90;90.90
81192;DHT22;70665;47.652;-2.730;2023-11-21T00:07:30;11.90;90.70
81192;DHT22;70665;47.652;-2.730;2023-11-21T00:09:55;11.90;90.80
81192;DHT22;70665;47.652;-2.730;2023-11-21T00:12:21;11.90;90.60
81192;DHT22;70665;47.652;-2.730;2023-11-21T00:14:47;11.80;90.70
81192;DHT22;70665;47.652;-2.730;2023-11-21T00:17:13;11.70;91.20
81192;DHT22;70665;47.652;-2.730;2023-11-21T00:19:38;11.70;91.30
81192;DHT22;70665;47.652;-2.730;2023-11-21T00:22:04;11.70;91.00
81192;DHT22;70665;47.652;-2.730;2023-11-21T00:24:29;11.70;91.10
81192;DHT22;70665;47.652;-2.730;2023-11-21T00:26:55;11.70;91.30
81192;DHT22;70665;47.652;-2.730;2023-11-21T00:29:21;11.60;91.20
81192;DHT22;70665;47.652;-2.730;2023-11-21T00:31:47;11.60;91.60
81192;DHT22;70665;47.652;-2.730;2023-11-21T00:34:12;11.60;91.50
81192;DHT22;70665;47.652;-2.730;2023-11-21T00:36:38;11.50;91.80
81192;DHT22;70665;47.652;-2.730;2023-11-21T00:39:04;11.60;92.00
81192;DHT22;70665;47.652;-2.730;2023-11-21T00:41:31;11.50;91.90
81192;DHT22;70665;47.652;-2.730;2023-11-21T00:43:57;11.50;92.00
81192;DHT22;70665;47.652;-2.730;2023-11-21T00:46:24;11.50;92.20
81192;DHT22;70665;47.652;-2.730;2023-11-21T00:48:52;11.50;92.10
81192;DHT22;70665;47.652;-2.730;2023-11-21T00:51:19;11.40;91.80
81192;DHT22;70665;47.652;-2.730;2023-11-21T00:53:45;11.50;91.90
81192;DHT22;70665;47.652;-2.730;2023-11-21T00:56:12;11.50;91.80
81192;DHT22;70665;47.652;-2.730;2023-11-21T00:58:37;11.40;91.80
81192;DHT22;70665;47.652;-2.730;2023-11-21T01:01:03;11.40;91.90
81192;DHT22;70665;47.652;-2.730;2023-11-21T01:03:29;11.40;92.10
81192;DHT22;70665;47.652;-2.730;2023-11-21T01:05:54;11.40;92.20
81192;DHT22;70665;47.652;-2.730;2023-11-21T01:08:20;11.30;92.30
81192;DHT22;70665;47.652;-2.730;2023-11-21T01:10:46;11.30;92.00
81192;DHT22;70665;47.652;-2.730;2023-11-21T01:13:12;11.20;92.70
81192;DHT22;70665;47.652;-2.730;2023-11-21T01:15:40;11.20;92.90
81192;DHT22;70665;47.652;-2.730;2023-11-21T01:18:07;11.20;93.00
81192;DHT22;70665;47.652;-2.730;2023-11-21T01:20:34;11.20;93.00
81192;DHT22;70665;47.652;-2.730;2023-11-21T01:22:59;11.10;92.80
81192;DHT22;70665;47.652;-2.730;2023-11-21T01:25:25;11.10;92.50
81192;DHT22;70665;47.652;-2.730;2023-11-21T01:27:51;11.20;92.30
81192;DHT22;70665;47.652;-2.730;2023-11-21T01:30:17;11.20;92.00
81192;DHT22;70665;47.652;-2.730;2023-11-21T01:32:43;11.20;91.70
81192;DHT22;70665;47.652;-2.730;2023-11-21T01:35:09;11.20;91.70
81192;DHT22;70665;47.652;-2.730;2023-11-21T01:37:36;11.20;91.70
81192;DHT22;70665;47.652;-2.730;2023-11-21T01:40:03;11.10;91.60
81192;DHT22;70665;47.652;-2.730;2023-11-21T01:42:31;11.20;91.40
81192;DHT22;70665;47.652;-2.730;2023-11-21T01:44:57;11.20;91.30
81192;DHT22;70665;47.652;-2.730;2023-11-21T01:47:23;11.20;91.20
81192;DHT22;70665;47.652;-2.730;2023-11-21T01:49:49;11.20;91.00
81192;DHT22;70665;47.652;-2.730;2023-11-21T01:52:15;11.20;90.90
81192;DHT22;70665;47.652;-2.730;2023-11-21T01:54:41;11.30;90.90
81192;DHT22;70665;47.652;-2.730;2023-11-21T01:57:08;11.20;90.70
81192;DHT22;70665;47.652;-2.730;2023-11-21T01:59:37;11.30;90.70
81192;DHT22;70665;47.652;-2.730;2023-11-21T02:02:07;11.30;90.50
81192;DHT22;70665;47.652;-2.730;2023-11-21T02:04:33;11.30;90.20
81192;DHT22;70665;47.652;-2.730;2023-11-21T02:06:59;11.30;90.30
81192;DHT22;70665;47.652;-2.730;2023-11-21T02:09:26;11.30;90.40
81192;DHT22;70665;47.652;-2.730;2023-11-21T02:11:53;11.30;90.60
81192;DHT22;70665;47.652;-2.730;2023-11-21T02:14:20;11.20;90.40
81192;DHT22;70665;47.652;-2.730;2023-11-21T02:16:50;11.10;90.40
81192;DHT22;70665;47.652;-2.730;2023-11-21T02:19:19;11.10;90.80
81192;DHT22;70665;47.652;-2.730;2023-11-21T02:21:49;11.10;91.00
81192;DHT22;70665;47.652;-2.730;2023-11-21T02:24:20;10.80;91.60
81192;DHT22;70665;47.652;-2.730;2023-11-21T02:26:45;10.80;91.80
81192;DHT22;70665;47.652;-2.730;2023-11-21T02:29:11;10.80;92.20
81192;DHT22;70665;47.652;-2.730;2023-11-21T02:31:38;10.80;92.20
81192;DHT22;70665;47.652;-2.730;2023-11-21T02:34:16;10.70;92.90
81192;DHT22;70665;47.652;-2.730;2023-11-21T02:36:45;10.80;92.70
81192;DHT22;70665;47.652;-2.730;2023-11-21T02:39:11;10.70;92.90
81192;DHT22;70665;47.652;-2.730;2023-11-21T02:41:40;10.70;92.70
81192;DHT22;70665;47.652;-2.730;2023-11-21T02:44:06;10.60;92.90
81192;DHT22;70665;47.652;-2.730;2023-11-21T02:46:35;10.70;93.00
81192;DHT22;70665;47.652;-2.730;2023-11-21T02:49:04;10.60;93.20
81192;DHT22;70665;47.652;-2.730;2023-11-21T02:51:32;10.60;92.90
81192;DHT22;70665;47.652;-2.730;2023-11-21T02:53:58;10.50;92.80
81192;DHT22;70665;47.652;-2.730;2023-11-21T02:56:25;10.50;92.70
81192;DHT22;70665;47.652;-2.730;2023-11-21T02:58:56;10.50;92.60
81192;DHT22;70665;47.652;-2.730;2023-11-21T03:01:22;10.50;92.50
81192;DHT22;70665;47.652;-2.730;2023-11-21T03:03:49;10.50;92.00
81192;DHT22;70665;47.652;-2.730;2023-11-21T03:06:17;10.50;92.00
81192;DHT22;70665;47.652;-2.730;2023-11-21T03:08:43;10.60;91.90
81192;DHT22;70665;47.652;-2.730;2023-11-21T03:11:08;10.50;91.70
81192;DHT22;70665;47.652;-2.730;2023-11-21T03:13:34;10.50;91.70
81192;DHT22;70665;47.652;-2.730;2023-11-21T03:16:00;10.40;91.60
81192;DHT22;70665;47.652;-2.730;2023-11-21T03:18:25;10.40;91.80
81192;DHT22;70665;47.652;-2.730;2023-11-21T03:20:54;10.40;91.80
81192;DHT22;70665;47.652;-2.730;2023-11-21T03:23:19;10.30;92.20
81192;DHT22;70665;47.652;-2.730;2023-11-21T03:25:45;10.30;92.10
81192;DHT22;70665;47.652;-2.730;2023-11-21T03:28:11;10.30;91.60
81192;DHT22;70665;47.652;-2.730;2023-11-21T03:30:36;10.30;92.30
81192;DHT22;70665;47.652;-2.730;2023-11-21T03:33:02;10.30;92.50
81192;DHT22;70665;47.652;-2.730;2023-11-21T03:35:27;10.40;92.50
81192;DHT22;70665;47.652;-2.730;2023-11-21T03:37:53;10.40;92.40
81192;DHT22;70665;47.652;-2.730;2023-11-21T03:40:19;10.30;92.40
81192;DHT22;70665;47.652;-2.730;2023-11-21T03:42:46;10.30;92.30
81192;DHT22;70665;47.652;-2.730;2023-11-21T03:45:12;10.40;92.40
81192;DHT22;70665;47.652;-2.730;2023-11-21T03:47:38;10.30;92.60
81192;DHT22;70665;47.652;-2.730;2023-11-21T03:50:04;10.30;92.80
81192;DHT22;70665;47.652;-2.730;2023-11-21T03:52:30;10.20;93.40
81192;DHT22;70665;47.652;-2.730;2023-11-21T03:54:55;10.20;93.10
81192;DHT22;70665;47.652;-2.730;2023-11-21T03:57:21;10.20;93.00
81192;DHT22;70665;47.652;-2.730;2023-11-21T03:59:47;10.10;93.20
81192;DHT22;70665;47.652;-2.730;2023-11-21T04:02:13;10.20;92.90
81192;DHT22;70665;47.652;-2.730;2023-11-21T04:04:38;10.20;93.00
81192;DHT22;70665;47.652;-2.730;2023-11-21T04:07:05;10.10;93.00
81192;DHT22;70665;47.652;-2.730;2023-11-21T04:09:30;10.10;93.10
81192;DHT22;70665;47.652;-2.730;2023-11-21T04:11:56;10.10;92.80
81192;DHT22;70665;47.652;-2.730;2023-11-21T04:14:23;10.10;92.80
81192;DHT22;70665;47.652;-2.730;2023-11-21T04:16:48;10.20;92.90
81192;DHT22;70665;47.652;-2.730;2023-11-21T04:19:14;10.10;92.70
81192;DHT22;70665;47.652;-2.730;2023-11-21T04:21:41;10.10;92.50
81192;DHT22;70665;47.652;-2.730;2023-11-21T04:24:07;10.10;92.50
81192;DHT22;70665;47.652;-2.730;2023-11-21T04:26:33;10.20;92.40
81192;DHT22;70665;47.652;-2.730;2023-11-21T04:28:58;10.20;92.30
81192;DHT22;70665;47.652;-2.730;2023-11-21T04:31:24;10.20;92.30
81192;DHT22;70665;47.652;-2.730;2023-11-21T04:33:50;10.10;92.10
81192;DHT22;70665;47.652;-2.730;2023-11-21T04:36:15;10.20;92.30
81192;DHT22;70665;47.652;-2.730;2023-11-21T04:38:41;10.10;92.10
81192;DHT22;70665;47.652;-2.730;2023-11-21T04:41:08;10.10;92.20
81192;DHT22;70665;47.652;-2.730;2023-11-21T04:43:33;10.10;92.20
81192;DHT22;70665;47.652;-2.730;2023-11-21T04:45:59;10.20;92.50
81192;DHT22;70665;47.652;-2.730;2023-11-21T04:48:25;10.20;92.40
81192;DHT22;70665;47.652;-2.730;2023-11-21T04:50:51;10.20;92.70
81192;DHT22;70665;47.652;-2.730;2023-11-21T04:53:17;10.20;92.60
81192;DHT22;70665;47.652;-2.730;2023-11-21T04:55:43;10.20;92.10
81192;DHT22;70665;47.652;-2.730;2023-11-21T04:58:09;10.30;92.40
81192;DHT22;70665;47.652;-2.730;2023-11-21T05:00:35;10.20;92.30
81192;DHT22;70665;47.652;-2.730;2023-11-21T05:03:04;10.30;91.90
81192;DHT22;70665;47.652;-2.730;2023-11-21T05:05:32;10.20;91.90
81192;DHT22;70665;47.652;-2.730;2023-11-21T05:07:59;10.30;92.00
81192;DHT22;70665;47.652;-2.730;2023-11-21T05:10:25;10.30;92.00
81192;DHT22;70665;47.652;-2.730;2023-11-21T05:12:50;10.30;91.90
81192;DHT22;70665;47.652;-2.730;2023-11-21T05:15:16;10.40;91.90
81192;DHT22;70665;47.652;-2.730;2023-11-21T05:17:46;10.40;92.00
81192;DHT22;70665;47.652;-2.730;2023-11-21T05:20:14;10.40;91.90
81192;DHT22;70665;47.652;-2.730;2023-11-21T05:22:43;10.50;91.90
81192;DHT22;70665;47.652;-2.730;2023-11-21T05:25:09;10.50;91.70
81192;DHT22;70665;47.652;-2.730;2023-11-21T05:27:35;10.50;91.50
81192;DHT22;70665;47.652;-2.730;2023-11-21T05:30:02;10.60;91.60
81192;DHT22;70665;47.652;-2.730;2023-11-21T05:32:30;10.60;91.40
81192;DHT22;70665;47.652;-2.730;2023-11-21T05:34:56;10.70;91.20
81192;DHT22;70665;47.652;-2.730;2023-11-21T05:37:22;10.70;91.50
81192;DHT22;70665;47.652;-2.730;2023-11-21T05:39:49;10.70;91.80
81192;DHT22;70665;47.652;-2.730;2023-11-21T05:42:14;10.70;91.70
81192;DHT22;70665;47.652;-2.730;2023-11-21T05:44:43;10.70;91.70
81192;DHT22;70665;47.652;-2.730;2023-11-21T05:47:09;10.70;91.90
81192;DHT22;70665;47.652;-2.730;2023-11-21T05:49:35;10.60;91.70
81192;DHT22;70665;47.652;-2.730;2023-11-21T05:52:00;10.60;91.70
81192;DHT22;70665;47.652;-2.730;2023-11-21T05:54:26;10.50;91.50
81192;DHT22;70665;47.652;-2.730;2023-11-21T05:56:52;10.60;91.60
81192;DHT22;70665;47.652;-2.730;2023-11-21T05:59:18;10.60;91.70
81192;DHT22;70665;47.652;-2.730;2023-11-21T06:01:43;10.50;91.60
81192;DHT22;70665;47.652;-2.730;2023-11-21T06:04:11;10.50;91.80
81192;DHT22;70665;47.652;-2.730;2023-11-21T06:06:36;10.50;92.30
81192;DHT22;70665;47.652;-2.730;2023-11-21T06:09:02;10.30;92.40
81192;DHT22;70665;47.652;-2.730;2023-11-21T06:11:28;10.30;92.60
81192;DHT22;70665;47.652;-2.730;2023-11-21T06:13:54;10.30;92.50
81192;DHT22;70665;47.652;-2.730;2023-11-21T06:16:20;10.20;92.80
81192;DHT22;70665;47.652;-2.730;2023-11-21T06:18:46;10.20;92.70
81192;DHT22;70665;47.652;-2.730;2023-11-21T06:21:12;10.10;93.10
81192;DHT22;70665;47.652;-2.730;2023-11-21T06:23:38;10.10;93.00
81192;DHT22;70665;47.652;-2.730;2023-11-21T06:26:04;10.10;93.50
81192;DHT22;70665;47.652;-2.730;2023-11-21T06:28:31;10.10;93.80
81192;DHT22;70665;47.652;-2.730;2023-11-21T06:30:57;10.10;93.80
81192;DHT22;70665;47.652;-2.730;2023-11-21T06:33:32;10.00;93.80
81192;DHT22;70665;47.652;-2.730;2023-11-21T06:35:58;10.00;94.00
81192;DHT22;70665;47.652;-2.730;2023-11-21T06:38:24;10.10;94.20
81192;DHT22;70665;47.652;-2.730;2023-11-21T06:40:50;10.00;94.50
81192;DHT22;70665;47.652;-2.730;2023-11-21T06:43:15;10.00;94.50
81192;DHT22;70665;47.652;-2.730;2023-11-21T06:45:41;10.00;94.60
81192;DHT22;70665;47.652;-2.730;2023-11-21T06:48:07;10.00;94.60
81192;DHT22;70665;47.652;-2.730;2023-11-21T06:50:32;10.10;94.60
81192;DHT22;70665;47.652;-2.730;2023-11-21T06:52:58;10.10;94.40
81192;DHT22;70665;47.652;-2.730;2023-11-21T06:55:24;10.10;94.30
81192;DHT22;70665;47.652;-2.730;2023-11-21T06:57:49;10.20;93.80
81192;DHT22;70665;47.652;-2.730;2023-11-21T07:00:17;10.10;93.50
81192;DHT22;70665;47.652;-2.730;2023-11-21T07:02:43;10.20;93.30
81192;DHT22;70665;47.652;-2.730;2023-11-21T07:05:09;10.20;93.00
81192;DHT22;70665;47.652;-2.730;2023-11-21T07:07:35;10.10;92.80
81192;DHT22;70665;47.652;-2.730;2023-11-21T07:10:03;10.20;93.20
81192;DHT22;70665;47.652;-2.730;2023-11-21T07:12:29;10.20;93.00
81192;DHT22;70665;47.652;-2.730;2023-11-21T07:14:55;10.10;93.00
81192;DHT22;70665;47.652;-2.730;2023-11-21T07:17:21;10.20;92.90
81192;DHT22;70665;47.652;-2.730;2023-11-21T07:19:48;10.20;92.70
81192;DHT22;70665;47.652;-2.730;2023-11-21T07:22:15;10.20;92.10
81192;DHT22;70665;47.652;-2.730;2023-11-21T07:24:48;10.20;92.10
81192;DHT22;70665;47.652;-2.730;2023-11-21T07:27:15;10.20;91.90
81192;DHT22;70665;47.652;-2.730;2023-11-21T07:29:40;10.20;91.70
81192;DHT22;70665;47.652;-2.730;2023-11-21T07:32:06;10.30;91.70
81192;DHT22;70665;47.652;-2.730;2023-11-21T07:34:34;10.20;91.70
81192;DHT22;70665;47.652;-2.730;2023-11-21T07:37:00;10.20;91.90
81192;DHT22;70665;47.652;-2.730;2023-11-21T07:39:25;10.20;91.80
81192;DHT22;70665;47.652;-2.730;2023-11-21T07:41:51;10.20;91.60
81192;DHT22;70665;47.652;-2.730;2023-11-21T07:44:17;10.30;91.70
81192;DHT22;70665;47.652;-2.730;2023-11-21T07:46:45;10.40;91.50
81192;DHT22;70665;47.652;-2.730;2023-11-21T07:49:12;10.40;91.40
81192;DHT22;70665;47.652;-2.730;2023-11-21T07:51:41;10.40;91.10
81192;DHT22;70665;47.652;-2.730;2023-11-21T07:54:07;10.40;91.10
81192;DHT22;70665;47.652;-2.730;2023-11-21T07:56:33;10.40;90.90
81192;DHT22;70665;47.652;-2.730;2023-11-21T07:58:58;10.40;90.70
81192;DHT22;70665;47.652;-2.730;2023-11-21T08:01:24;10.40;91.00
81192;DHT22;70665;47.652;-2.730;2023-11-21T08:03:50;10.60;91.00
81192;DHT22;70665;47.652;-2.730;2023-11-21T08:06:17;10.60;90.80
81192;DHT22;70665;47.652;-2.730;2023-11-21T08:08:43;10.70;90.20
81192;DHT22;70665;47.652;-2.730;2023-11-21T08:11:09;10.70;90.00
81192;DHT22;70665;47.652;-2.730;2023-11-21T08:13:36;10.90;89.60
81192;DHT22;70665;47.652;-2.730;2023-11-21T08:16:01;10.80;89.20
81192;DHT22;70665;47.652;-2.730;2023-11-21T08:18:29;10.90;89.20
81192;DHT22;70665;47.652;-2.730;2023-11-21T08:20:57;10.90;89.20
81192;DHT22;70665;47.652;-2.730;2023-11-21T08:23:23;11.00;89.00
81192;DHT22;70665;47.652;-2.730;2023-11-21T08:25:54;11.10;88.80
81192;DHT22;70665;47.652;-2.730;2023-11-21T08:28:21;11.10;88.80
81192;DHT22;70665;47.652;-2.730;2023-11-21T08:30:51;11.10;88.50
81192;DHT22;70665;47.652;-2.730;2023-11-21T08:33:17;11.20;88.40
81192;DHT22;70665;47.652;-2.730;2023-11-21T08:35:44;11.20;88.50
81192;DHT22;70665;47.652;-2.730;2023-11-21T08:38:09;11.40;88.10
81192;DHT22;70665;47.652;-2.730;2023-11-21T08:40:36;11.40;87.90
81192;DHT22;70665;47.652;-2.730;2023-11-21T08:43:01;11.50;87.30
81192;DHT22;70665;47.652;-2.730;2023-11-21T08:45:30;11.50;87.20
81192;DHT22;70665;47.652;-2.730;2023-11-21T08:47:55;11.50;87.00
81192;DHT22;70665;47.652;-2.730;2023-11-21T08:50:21;11.50;87.00
81192;DHT22;70665;47.652;-2.730;2023-11-21T08:52:47;11.60;86.80
81192;DHT22;70665;47.652;-2.730;2023-11-21T08:55:13;11.70;86.80
81192;DHT22;70665;47.652;-2.730;2023-11-21T08:57:40;11.80;86.40
81192;DHT22;70665;47.652;-2.730;2023-11-21T09:00:07;11.80;86.60
81192;DHT22;70665;47.652;-2.730;2023-11-21T09:02:38;11.90;86.00
81192;DHT22;70665;47.652;-2.730;2023-11-21T09:05:05;11.90;85.60
81192;DHT22;70665;47.652;-2.730;2023-11-21T09:07:31;12.00;85.80
81192;DHT22;70665;47.652;-2.730;2023-11-21T09:09:57;12.10;85.30
81192;DHT22;70665;47.652;-2.730;2023-11-21T09:12:22;12.30;85.20
81192;DHT22;70665;47.652;-2.730;2023-11-21T09:14:50;12.10;85.40
81192;DHT22;70665;47.652;-2.730;2023-11-21T09:17:16;12.10;85.20
81192;DHT22;70665;47.652;-2.730;2023-11-21T09:19:42;12.20;85.40
81192;DHT22;70665;47.652;-2.730;2023-11-21T09:22:10;12.20;85.10
81192;DHT22;70665;47.652;-2.730;2023-11-21T09:24:37;12.50;84.60
81192;DHT22;70665;47.652;-2.730;2023-11-21T09:27:03;12.60;84.80
81192;DHT22;70665;47.652;-2.730;2023-11-21T09:29:30;12.60;84.40
81192;DHT22;70665;47.652;-2.730;2023-11-21T09:31:57;12.90;84.40
81192;DHT22;70665;47.652;-2.730;2023-11-21T09:34:25;13.00;84.10
81192;DHT22;70665;47.652;-2.730;2023-11-21T09:36:51;13.00;84.00
81192;DHT22;70665;47.652;-2.730;2023-11-21T09:39:17;13.10;83.50
81192;DHT22;70665;47.652;-2.730;2023-11-21T09:41:49;13.20;83.30
81192;DHT22;70665;47.652;-2.730;2023-11-21T09:44:19;13.30;82.90
81192;DHT22;70665;47.652;-2.730;2023-11-21T09:46:48;13.30;83.10
81192;DHT22;70665;47.652;-2.730;2023-11-21T09:49:22;13.40;83.10
81192;DHT22;70665;47.652;-2.730;2023-11-21T09:51:54;13.50;82.90
81192;DHT22;70665;47.652;-2.730;2023-11-21T09:54:20;13.60;82.50
81192;DHT22;70665;47.652;-2.730;2023-11-21T09:56:47;13.80;82.70
81192;DHT22;70665;47.652;-2.730;2023-11-21T09:59:14;13.80;82.40
81192;DHT22;70665;47.652;-2.730;2023-11-21T10:01:41;13.90;81.70
81192;DHT22;70665;47.652;-2.730;2023-11-21T10:04:08;14.00;81.80
81192;DHT22;70665;47.652;-2.730;2023-11-21T10:06:39;14.10;82.10
81192;DHT22;70665;47.652;-2.730;2023-11-21T10:09:10;14.00;81.40
81192;DHT22;70665;47.652;-2.730;2023-11-21T10:11:41;14.10;81.60
81192;DHT22;70665;47.652;-2.730;2023-11-21T10:14:10;14.20;81.20
81192;DHT22;70665;47.652;-2.730;2023-11-21T10:16:38;14.30;81.40
81192;DHT22;70665;47.652;-2.730;2023-11-21T10:19:04;14.50;80.80
81192;DHT22;70665;47.652;-2.730;2023-11-21T10:21:32;14.50;80.70
81192;DHT22;70665;47.652;-2.730;2023-11-21T10:23:59;14.60;80.20
81192;DHT22;70665;47.652;-2.730;2023-11-21T10:26:26;14.60;80.30
81192;DHT22;70665;47.652;-2.730;2023-11-21T10:28:58;14.70;80.20
81192;DHT22;70665;47.652;-2.730;2023-11-21T10:31:28;14.70;81.00
81192;DHT22;70665;47.652;-2.730;2023-11-21T10:33:53;14.80;80.00
81192;DHT22;70665;47.652;-2.730;2023-11-21T10:36:28;15.00;78.90
81192;DHT22;70665;47.652;-2.730;2023-11-21T10:38:54;15.20;78.80
81192;DHT22;70665;47.652;-2.730;2023-11-21T10:41:20;15.10;78.10
81192;DHT22;70665;47.652;-2.730;2023-11-21T10:43:46;15.10;79.00
81192;DHT22;70665;47.652;-2.730;2023-11-21T10:46:13;15.00;79.40
81192;DHT22;70665;47.652;-2.730;2023-11-21T10:48:44;14.90;78.50
81192;DHT22;70665;47.652;-2.730;2023-11-21T10:51:09;14.90;78.90
81192;DHT22;70665;47.652;-2.730;2023-11-21T10:53:39;14.80;79.20
81192;DHT22;70665;47.652;-2.730;2023-11-21T10:56:08;14.70;79.60
81192;DHT22;70665;47.652;-2.730;2023-11-21T10:58:43;14.70;80.30
81192;DHT22;70665;47.652;-2.730;2023-11-21T11:01:08;14.70;80.70
81192;DHT22;70665;47.652;-2.730;2023-11-21T11:03:37;14.60;81.00
81192;DHT22;70665;47.652;-2.730;2023-11-21T11:06:07;14.50;82.00
81192;DHT22;70665;47.652;-2.730;2023-11-21T11:08:40;14.40;82.20
81192;DHT22;70665;47.652;-2.730;2023-11-21T11:11:06;14.60;82.20
81192;DHT22;70665;47.652;-2.730;2023-11-21T11:13:32;14.90;81.60
81192;DHT22;70665;47.652;-2.730;2023-11-21T11:16:00;15.10;81.10
81192;DHT22;70665;47.652;-2.730;2023-11-21T11:18:27;15.30;80.10
81192;DHT22;70665;47.652;-2.730;2023-11-21T11:21:07;15.40;79.60
81192;DHT22;70665;47.652;-2.730;2023-11-21T11:27:01;15.70;77.60
81192;DHT22;70665;47.652;-2.730;2023-11-21T11:32:49;15.90;78.20
81192;DHT22;70665;47.652;-2.730;2023-11-21T11:35:42;15.90;78.50
81192;DHT22;70665;47.652;-2.730;2023-11-21T11:38:09;16.10;77.90
81192;DHT22;70665;47.652;-2.730;2023-11-21T11:40:40;16.00;78.60
81192;DHT22;70665;47.652;-2.730;2023-11-21T11:43:07;16.10;78.50
81192;DHT22;70665;47.652;-2.730;2023-11-21T11:45:33;15.70;78.10
81192;DHT22;70665;47.652;-2.730;2023-11-21T11:48:00;15.40;80.60
81192;DHT22;70665;47.652;-2.730;2023-11-21T11:50:26;15.20;82.40
81192;DHT22;70665;47.652;-2.730;2023-11-21T11:52:52;15.10;82.20
81192;DHT22;70665;47.652;-2.730;2023-11-21T11:55:21;15.10;82.10
81192;DHT22;70665;47.652;-2.730;2023-11-21T11:57:49;15.10;82.60
81192;DHT22;70665;47.652;-2.730;2023-11-21T12:02:54;15.40;82.90
81192;DHT22;70665;47.652;-2.730;2023-11-21T12:05:22;15.60;81.70
81192;DHT22;70665;47.652;-2.730;2023-11-21T12:10:24;15.90;80.30
81192;DHT22;70665;47.652;-2.730;2023-11-21T12:13:07;15.90;79.50
81192;DHT22;70665;47.652;-2.730;2023-11-21T12:15:36;15.70;79.60
81192;DHT22;70665;47.652;-2.730;2023-11-21T12:18:02;15.80;79.00
81192;DHT22;70665;47.652;-2.730;2023-11-21T12:20:29;15.90;79.10
81192;DHT22;70665;47.652;-2.730;2023-11-21T12:22:55;16.00;77.50
81192;DHT22;70665;47.652;-2.730;2023-11-21T12:25:26;16.50;76.10
81192;DHT22;70665;47.652;-2.730;2023-11-21T12:27:55;17.00;74.20
81192;DHT22;70665;47.652;-2.730;2023-11-21T12:30:23;17.30;72.30
81192;DHT22;70665;47.652;-2.730;2023-11-21T12:32:51;17.10;73.60
81192;DHT22;70665;47.652;-2.730;2023-11-21T12:35:22;17.10;76.00
81192;DHT22;70665;47.652;-2.730;2023-11-21T12:37:48;16.90;75.10
81192;DHT22;70665;47.652;-2.730;2023-11-21T12:40:15;16.50;76.20
81192;DHT22;70665;47.652;-2.730;2023-11-21T12:42:47;16.30;76.70
81192;DHT22;70665;47.652;-2.730;2023-11-21T12:47:50;17.80;70.80
81192;DHT22;70665;47.652;-2.730;2023-11-21T12:50:26;18.60;68.30
81192;DHT22;70665;47.652;-2.730;2023-11-21T12:53:04;19.10;64.90
81192;DHT22;70665;47.652;-2.730;2023-11-21T12:55:35;19.50;63.30
81192;DHT22;70665;47.652;-2.730;2023-11-21T12:58:03;20.10;62.90
81192;DHT22;70665;47.652;-2.730;2023-11-21T13:00:48;19.80;60.60
81192;DHT22;70665;47.652;-2.730;2023-11-21T13:03:17;19.30;63.40
81192;DHT22;70665;47.652;-2.730;2023-11-21T13:05:45;18.50;66.90
81192;DHT22;70665;47.652;-2.730;2023-11-21T13:08:13;17.70;67.00
81192;DHT22;70665;47.652;-2.730;2023-11-21T13:10:42;17.10;68.90
81192;DHT22;70665;47.652;-2.730;2023-11-21T13:13:11;16.80;72.20
81192;DHT22;70665;47.652;-2.730;2023-11-21T13:15:57;16.20;73.90
81192;DHT22;70665;47.652;-2.730;2023-11-21T13:18:27;15.80;76.40
81192;DHT22;70665;47.652;-2.730;2023-11-21T13:20:54;15.80;76.90
81192;DHT22;70665;47.652;-2.730;2023-11-21T13:23:21;15.40;77.60
81192;DHT22;70665;47.652;-2.730;2023-11-21T13:25:48;15.40;78.60
81192;DHT22;70665;47.652;-2.730;2023-11-21T13:28:15;15.20;78.50
81192;DHT22;70665;47.652;-2.730;2023-11-21T13:30:49;15.10;79.50
81192;DHT22;70665;47.652;-2.730;2023-11-21T13:33:17;14.90;79.10
81192;DHT22;70665;47.652;-2.730;2023-11-21T13:35:47;14.90;79.40
81192;DHT22;70665;47.652;-2.730;2023-11-21T13:38:18;14.80;79.60
81192;DHT22;70665;47.652;-2.730;2023-11-21T13:40:51;14.90;79.70
81192;DHT22;70665;47.652;-2.730;2023-11-21T13:43:20;14.70;78.60
81192;DHT22;70665;47.652;-2.730;2023-11-21T13:45:48;14.80;78.80
81192;DHT22;70665;47.652;-2.730;2023-11-21T13:48:24;15.00;78.80
81192;DHT22;70665;47.652;-2.730;2023-11-21T13:51:09;14.80;78.40
81192;DHT22;70665;47.652;-2.730;2023-11-21T13:53:48;14.80;78.50
81192;DHT22;70665;47.652;-2.730;2023-11-21T13:56:19;16.10;75.40
81192;DHT22;70665;47.652;-2.730;2023-11-21T13:58:49;17.60;69.90
81192;DHT22;70665;47.652;-2.730;2023-11-21T14:01:20;19.00;63.40
81192;DHT22;70665;47.652;-2.730;2023-11-21T14:03:56;19.70;62.40
81192;DHT22;70665;47.652;-2.730;2023-11-21T14:06:37;19.80;61.00
81192;DHT22;70665;47.652;-2.730;2023-11-21T14:09:20;18.70;63.00
81192;DHT22;70665;47.652;-2.730;2023-11-21T14:11:51;17.20;67.70
81192;DHT22;70665;47.652;-2.730;2023-11-21T14:14:19;16.40;69.10
81192;DHT22;70665;47.652;-2.730;2023-11-21T14:16:45;15.90;71.80
81192;DHT22;70665;47.652;-2.730;2023-11-21T14:19:11;15.70;72.30
81192;DHT22;70665;47.652;-2.730;2023-11-21T14:21:41;15.50;74.30
81192;DHT22;70665;47.652;-2.730;2023-11-21T14:24:13;15.30;75.50
81192;DHT22;70665;47.652;-2.730;2023-11-21T14:26:43;14.90;76.40
81192;DHT22;70665;47.652;-2.730;2023-11-21T14:29:11;15.00;76.50
81192;DHT22;70665;47.652;-2.730;2023-11-21T14:31:40;14.90;77.00
81192;DHT22;70665;47.652;-2.730;2023-11-21T14:34:06;14.90;77.10
81192;DHT22;70665;47.652;-2.730;2023-11-21T14:36:33;14.80;77.10
81192;DHT22;70665;47.652;-2.730;2023-11-21T14:38:59;14.60;77.80
81192;DHT22;70665;47.652;-2.730;2023-11-21T14:41:24;14.50;78.20
81192;DHT22;70665;47.652;-2.730;2023-11-21T14:43:51;14.40;78.60
81192;DHT22;70665;47.652;-2.730;2023-11-21T14:46:16;14.40;79.20
81192;DHT22;70665;47.652;-2.730;2023-11-21T14:48:45;14.30;79.20
81192;DHT22;70665;47.652;-2.730;2023-11-21T14:51:24;14.50;79.10
81192;DHT22;70665;47.652;-2.730;2023-11-21T14:53:58;14.30;78.90
81192;DHT22;70665;47.652;-2.730;2023-11-21T14:56:32;14.30;78.40
81192;DHT22;70665;47.652;-2.730;2023-11-21T14:59:00;14.20;78.20
81192;DHT22;70665;47.652;-2.730;2023-11-21T15:01:38;14.20;78.10
81192;DHT22;70665;47.652;-2.730;2023-11-21T15:04:18;14.20;78.70
81192;DHT22;70665;47.652;-2.730;2023-11-21T15:07:04;14.30;78.60
81192;DHT22;70665;47.652;-2.730;2023-11-21T15:09:30;14.20;78.30
81192;DHT22;70665;47.652;-2.730;2023-11-21T15:12:02;14.30;79.00
81192;DHT22;70665;47.652;-2.730;2023-11-21T15:14:51;14.30;78.10
81192;DHT22;70665;47.652;-2.730;2023-11-21T15:17:21;14.40;78.70
81192;DHT22;70665;47.652;-2.730;2023-11-21T15:19:56;14.40;78.00
81192;DHT22;70665;47.652;-2.730;2023-11-21T15:22:23;14.50;77.50
81192;DHT22;70665;47.652;-2.730;2023-11-21T15:24:49;14.50;77.00
81192;DHT22;70665;47.652;-2.730;2023-11-21T15:27:15;14.40;77.20
81192;DHT22;70665;47.652;-2.730;2023-11-21T15:29:41;14.30;76.70
81192;DHT22;70665;47.652;-2.730;2023-11-21T15:32:08;14.30;77.10